Time;durP1;ratioP1;P1;durP2;ratioP2;P2;SDS_P1;SDS_P2;PMS_P1;PMS_P2;Temp;Humidity;BMP_temperature;BMP_pressure;BME280_temperature;BME280_humidity;BME280_pressure;Samples;Min_cycle;Max_cycle;Signal;HPM_P1;HPM_P2
2023/10/20 00:00:25;;;;;;;53.53;22.80;;;;;;;;;;5111083;27;20043;-61
2023/10/20 00:02:51;;;;;;;45.83;22.33;;;;;;;;;;5113793;28;20057;-60
2023/10/20 00:05:17;;;;;;;46.42;21.58;;;;;;;;;;5113965;28;20058;-60
2023/10/20 00:07:43;;;;;;;49.00;20.77;;;;;;;;;;5113795;28;20043;-60
2023/10/20 00:10:11;;;;;;;52.10;22.50;;;;;;;;;;5113336;28;20048;-60
2023/10/20 00:12:37;;;;;;;54.60;23.52;;;;;;;;;;5114159;27;20047;-60
2023/10/20 00:15:03;;;;;;;48.45;22.38;;;;;;;;;;5111953;28;20427;-60
2023/10/20 00:17:29;;;;;;;53.08;23.95;;;;;;;;;;5114080;28;20122;-60
2023/10/20 00:19:55;;;;;;;53.38;24.52;;;;;;;;;;5113993;27;20059;-60
2023/10/20 00:22:21;;;;;;;51.72;20.90;;;;;;;;;;5095435;28;20173;-60
2023/10/20 00:24:47;;;;;;;48.28;24.52;;;;;;;;;;5113995;27;20115;-60
2023/10/20 00:27:13;;;;;;;49.92;22.63;;;;;;;;;;5094602;28;20185;-60
2023/10/20 00:29:40;;;;;;;54.05;24.15;;;;;;;;;;5095722;28;20043;-60
2023/10/20 00:32:07;;;;;;;53.20;24.30;;;;;;;;;;5113708;28;20043;-60
2023/10/20 00:34:33;;;;;;;58.78;23.88;;;;;;;;;;5108504;27;20046;-60
2023/10/20 00:36:59;;;;;;;56.35;23.88;;;;;;;;;;5113440;28;20128;-60
2023/10/20 00:39:25;;;;;;;53.67;22.00;;;;;;;;;;5095469;28;20079;-60
2023/10/20 00:41:51;;;;;;;54.33;23.88;;;;;;;;;;5077119;27;20495;-60
2023/10/20 00:44:17;;;;;;;54.10;20.00;;;;;;;;;;5111379;27;20040;-60
2023/10/20 00:46:43;;;;;;;48.15;19.85;;;;;;;;;;5113496;28;20058;-60
2023/10/20 00:49:10;;;;;;;51.33;19.73;;;;;;;;;;5113487;28;20059;-60
2023/10/20 00:51:37;;;;;;;51.67;21.75;;;;;;;;;;5112459;28;20048;-60
2023/10/20 00:54:03;;;;;;;51.22;22.50;;;;;;;;;;5095153;28;20462;-61
2023/10/20 00:56:30;;;;;;;53.53;22.15;;;;;;;;;;5112771;27;20357;-60
2023/10/20 00:58:57;;;;;;;52.67;21.73;;;;;;;;;;5113226;28;20051;-60
2023/10/20 01:01:23;;;;;;;56.75;22.98;;;;;;;;;;5094901;28;20127;-60
2023/10/20 01:03:49;;;;;;;59.58;23.35;;;;;;;;;;5113178;28;20151;-60
2023/10/20 01:06:15;;;;;;;49.53;22.40;;;;;;;;;;5112186;28;20503;-61
2023/10/20 01:08:41;;;;;;;67.22;26.25;;;;;;;;;;5113271;28;20505;-60
2023/10/20 01:11:07;;;;;;;70.50;23.02;;;;;;;;;;5112231;27;20096;-60
2023/10/20 01:13:33;;;;;;;61.80;25.40;;;;;;;;;;5111582;27;20508;-61
2023/10/20 01:15:59;;;;;;;56.08;23.42;;;;;;;;;;5110128;28;20054;-60
2023/10/20 01:18:25;;;;;;;57.95;24.17;;;;;;;;;;5112784;28;20048;-60
2023/10/20 01:20:51;;;;;;;50.70;22.17;;;;;;;;;;5094195;28;20108;-60
2023/10/20 01:23:17;;;;;;;52.10;21.58;;;;;;;;;;5112409;28;20047;-60
2023/10/20 01:25:43;;;;;;;59.35;22.77;;;;;;;;;;5110750;27;20412;-60
2023/10/20 01:28:10;;;;;;;61.13;24.27;;;;;;;;;;5112563;28;20086;-61
2023/10/20 01:30:36;;;;;;;58.75;23.77;;;;;;;;;;5112564;28;20585;-60
2023/10/20 01:33:02;;;;;;;51.85;21.13;;;;;;;;;;5094725;28;20051;-61
2023/10/20 01:35:28;;;;;;;52.88;22.23;;;;;;;;;;5111141;28;20137;-60
2023/10/20 01:37:54;;;;;;;55.65;23.25;;;;;;;;;;5112046;28;20119;-60
2023/10/20 01:40:21;;;;;;;50.42;18.95;;;;;;;;;;5094037;28;20063;-60
2023/10/20 01:42:47;;;;;;;49.97;19.95;;;;;;;;;;5112351;28;20389;-60
2023/10/20 01:45:13;;;;;;;55.67;22.13;;;;;;;;;;5110592;27;20040;-60
2023/10/20 01:47:40;;;;;;;52.47;20.30;;;;;;;;;;5112560;28;20050;-60
2023/10/20 01:50:06;;;;;;;53.58;21.67;;;;;;;;;;5111760;28;20050;-60
2023/10/20 01:52:32;;;;;;;56.33;21.60;;;;;;;;;;5112528;28;20047;-60
2023/10/20 01:55:01;;;;;;;53.95;20.98;;;;;;;;;;5111463;28;20135;-61
2023/10/20 01:57:27;;;;;;;57.90;23.80;;;;;;;;;;5082764;28;20052;-60
2023/10/20 01:59:53;;;;;;;55.90;22.00;;;;;;;;;;5112068;28;20875;-60
2023/10/20 02:02:19;;;;;;;51.13;21.90;;;;;;;;;;5111885;28;20488;-60
2023/10/20 02:04:46;;;;;;;62.95;23.33;;;;;;;;;;5093783;28;20495;-60
2023/10/20 02:07:12;;;;;;;54.65;20.23;;;;;;;;;;5110821;28;20054;-60
2023/10/20 02:09:38;;;;;;;56.00;21.60;;;;;;;;;;5111243;28;20042;-60
2023/10/20 02:12:04;;;;;;;57.15;23.15;;;;;;;;;;5093669;28;20130;-61
2023/10/20 02:14:31;;;;;;;60.30;22.88;;;;;;;;;;5076675;28;20047;-60
2023/10/20 02:16:57;;;;;;;52.67;22.27;;;;;;;;;;5111609;28;20055;-60
2023/10/20 02:19:23;;;;;;;54.45;22.80;;;;;;;;;;5111373;28;20066;-60
2023/10/20 02:21:49;;;;;;;66.05;23.58;;;;;;;;;;5108951;28;20050;-61
2023/10/20 02:24:15;;;;;;;54.17;20.58;;;;;;;;;;5109268;28;20616;-60
2023/10/20 02:26:41;;;;;;;45.42;19.30;;;;;;;;;;5111362;28;20051;-60
2023/10/20 02:29:07;;;;;;;53.90;21.52;;;;;;;;;;5093450;28;20054;-61
2023/10/20 02:31:33;;;;;;;54.80;20.55;;;;;;;;;;5112059;28;20059;-60
2023/10/20 02:33:59;;;;;;;56.75;21.52;;;;;;;;;;5109769;28;20070;-60
2023/10/20 02:36:25;;;;;;;58.40;22.50;;;;;;;;;;5092209;28;20479;-60
2023/10/20 02:38:55;;;;;;;46.95;19.17;;;;;;;;;;5111346;28;20629;-60
2023/10/20 02:41:21;;;;;;;57.37;23.23;;;;;;;;;;5092862;28;20415;-60
2023/10/20 02:43:47;;;;;;;62.40;23.15;;;;;;;;;;5093567;28;20078;-60
2023/10/20 02:46:13;;;;;;;60.35;23.00;;;;;;;;;;5093260;28;20073;-60
2023/10/20 02:48:39;;;;;;;54.10;22.30;;;;;;;;;;5111032;28;20131;-60
2023/10/20 02:51:15;;;;;;;54.63;22.55;;;;;;;;;;5112265;28;20058;-60
2023/10/20 02:53:41;;;;;;;58.72;23.40;;;;;;;;;;5115183;27;20043;-60
2023/10/20 02:56:14;;;;;;;44.60;18.50;;;;;;;;;;5097181;28;20055;-61
2023/10/20 02:58:43;;;;;;;50.78;21.67;;;;;;;;;;5080713;28;20075;-60
2023/10/20 03:01:09;;;;;;;55.33;22.15;;;;;;;;;;5114365;27;20399;-60
2023/10/20 03:03:35;;;;;;;56.40;24.13;;;;;;;;;;5114135;27;20044;-60
2023/10/20 03:06:02;;;;;;;53.28;19.45;;;;;;;;;;5114938;28;20437;-60
2023/10/20 03:08:29;;;;;;;50.42;23.13;;;;;;;;;;5115288;28;20052;-60
2023/10/20 03:10:56;;;;;;;47.33;21.05;;;;;;;;;;5115586;28;20059;-60
2023/10/20 03:13:23;;;;;;;48.65;21.02;;;;;;;;;;5114609;27;20059;-60
2023/10/20 03:15:50;;;;;;;52.42;20.13;;;;;;;;;;5114744;28;20453;-60
2023/10/20 03:18:16;;;;;;;50.78;24.13;;;;;;;;;;5097086;28;20048;-61
2023/10/20 03:20:43;;;;;;;49.30;21.38;;;;;;;;;;5080121;28;20058;-60
2023/10/20 03:23:10;;;;;;;51.40;21.27;;;;;;;;;;5113881;28;20051;-61
2023/10/20 03:25:36;;;;;;;46.33;20.13;;;;;;;;;;5115256;28;20127;-61
2023/10/20 03:28:03;;;;;;;44.67;18.40;;;;;;;;;;5114343;28;20040;-60
2023/10/20 03:30:29;;;;;;;50.97;21.45;;;;;;;;;;5114706;28;20471;-60
2023/10/20 03:32:55;;;;;;;64.53;24.58;;;;;;;;;;5113882;27;20047;-61
2023/10/20 03:35:21;;;;;;;38.50;15.57;;;;;;;;;;5114488;28;20451;-61
2023/10/20 03:37:54;;;;;;;46.75;20.67;;;;;;;;;;5095033;28;20618;-61
2023/10/20 03:40:23;;;;;;;31.08;14.52;;;;;;;;;;5111860;27;20062;-60
2023/10/20 03:42:50;;;;;;;53.58;20.75;;;;;;;;;;5112899;27;20052;-61
2023/10/20 03:45:16;;;;;;;53.95;21.77;;;;;;;;;;5113919;28;20054;-60
2023/10/20 03:47:43;;;;;;;52.53;23.17;;;;;;;;;;5111576;27;20122;-60
2023/10/20 03:50:16;;;;;;;50.38;22.90;;;;;;;;;;5095603;27;20056;-61
2023/10/20 03:52:48;;;;;;;48.13;20.90;;;;;;;;;;5098670;27;20416;-60
2023/10/20 03:55:15;;;;;;;50.10;22.35;;;;;;;;;;5094834;27;20047;-61
2023/10/20 03:57:44;;;;;;;47.63;20.70;;;;;;;;;;5113891;27;20054;-60
2023/10/20 04:00:28;;;;;;;49.75;19.30;;;;;;;;;;5098812;28;20044;-60
2023/10/20 04:02:55;;;;;;;39.92;20.42;;;;;;;;;;5096739;28;20055;-60
2023/10/20 04:05:21;;;;;;;48.20;21.02;;;;;;;;;;5094257;28;20056;-60
2023/10/20 04:07:47;;;;;;;40.38;19.33;;;;;;;;;;5117379;27;20047;-60
2023/10/20 04:10:14;;;;;;;46.78;19.85;;;;;;;;;;5112733;28;20052;-60
2023/10/20 04:12:41;;;;;;;49.38;24.58;;;;;;;;;;5114167;28;20102;-60
2023/10/20 04:15:10;;;;;;;49.25;21.98;;;;;;;;;;5078494;28;20055;-61
2023/10/20 04:17:38;;;;;;;44.92;19.48;;;;;;;;;;5095897;28;20059;-60
2023/10/20 04:20:15;;;;;;;36.20;16.85;;;;;;;;;;5095347;28;20055;-61
2023/10/20 04:22:42;;;;;;;39.00;17.60;;;;;;;;;;5114118;27;20089;-61
2023/10/20 04:25:12;;;;;;;50.67;22.08;;;;;;;;;;5113408;28;20055;-60
2023/10/20 04:27:45;;;;;;;37.60;17.85;;;;;;;;;;5113901;28;20408;-60
2023/10/20 04:52:12;;;;;;;35.75;16.80;;;;;;;;;;5095220;28;20051;-61
2023/10/20 04:57:49;;;;;;;37.50;19.63;;;;;;;;;;5110479;27;20530;-60
2023/10/20 05:08:05;;;;;;;41.60;18.05;;;;;;;;;;5113276;28;20047;-60
2023/10/20 05:10:32;;;;;;;38.15;17.85;;;;;;;;;;5095511;28;20055;-60
2023/10/20 05:12:58;;;;;;;35.58;17.58;;;;;;;;;;5112175;28;20060;-60
2023/10/20 05:15:25;;;;;;;34.85;15.57;;;;;;;;;;5112224;28;20081;-60
2023/10/20 05:17:52;;;;;;;37.45;17.08;;;;;;;;;;5112744;27;20048;-60
2023/10/20 05:20:22;;;;;;;30.45;15.75;;;;;;;;;;5094673;28;20419;-61
2023/10/20 05:22:48;;;;;;;;;;;;;;;;;;5095180;28;20057;-60
2023/10/20 05:25:15;;;;;;;32.58;16.02;;;;;;;;;;5093696;28;19919;-61
2023/10/20 05:27:41;;;;;;;40.28;19.50;;;;;;;;;;5111886;28;20412;-62
2023/10/20 05:30:08;;;;;;;25.02;13.75;;;;;;;;;;5111686;28;20047;-61
2023/10/20 05:32:34;;;;;;;39.20;18.58;;;;;;;;;;5112583;28;20380;-61
2023/10/20 05:35:01;;;;;;;37.40;17.70;;;;;;;;;;5111408;27;20051;-61
2023/10/20 05:37:27;;;;;;;44.92;18.90;;;;;;;;;;5112292;27;20039;-61
2023/10/20 05:39:53;;;;;;;42.63;20.00;;;;;;;;;;5112520;28;20069;-61
2023/10/20 05:42:19;;;;;;;31.55;14.82;;;;;;;;;;5110120;28;20043;-60
2023/10/20 05:44:59;;;;;;;35.75;16.60;;;;;;;;;;5094117;28;20043;-60
2023/10/20 05:47:25;;;;;;;30.17;16.17;;;;;;;;;;5111753;27;20047;-60
2023/10/20 05:49:51;;;;;;;37.03;18.02;;;;;;;;;;5111163;27;20411;-60
2023/10/20 05:52:17;;;;;;;38.40;19.33;;;;;;;;;;5112080;28;20132;-60
2023/10/20 05:54:43;;;;;;;37.85;17.95;;;;;;;;;;5112517;28;20396;-60
2023/10/20 05:57:09;;;;;;;39.13;20.13;;;;;;;;;;5091910;28;20097;-60
2023/10/20 05:59:35;;;;;;;38.80;16.65;;;;;;;;;;5112274;28;20050;-60
2023/10/20 06:02:03;;;;;;;38.55;17.88;;;;;;;;;;5111880;28;20475;-61
2023/10/20 06:04:29;;;;;;;35.33;17.45;;;;;;;;;;5112352;28;20052;-60
2023/10/20 06:06:56;;;;;;;37.92;18.42;;;;;;;;;;5112335;28;20044;-60
2023/10/20 06:09:25;;;;;;;36.47;19.45;;;;;;;;;;5111251;28;20159;-61
2023/10/20 06:11:53;;;;;;;39.28;19.45;;;;;;;;;;5111364;28;20051;-60
2023/10/20 06:14:20;;;;;;;33.75;14.90;;;;;;;;;;5111994;28;20078;-60
2023/10/20 06:16:46;;;;;;;37.38;16.85;;;;;;;;;;5077257;28;20044;-60
2023/10/20 06:19:12;;;;;;;30.55;14.35;;;;;;;;;;5111911;28;20044;-60
2023/10/20 06:21:42;;;;;;;35.78;17.52;;;;;;;;;;5112105;28;20051;-60
2023/10/20 06:24:08;;;;;;;39.83;16.65;;;;;;;;;;5111178;28;20082;-60
2023/10/20 06:26:34;;;;;;;35.35;17.15;;;;;;;;;;5122604;27;20039;-60
2023/10/20 06:29:01;;;;;;;33.67;16.67;;;;;;;;;;5137036;27;20050;-60
2023/10/20 06:31:28;;;;;;;36.22;16.80;;;;;;;;;;5108864;28;20048;-60
2023/10/20 06:34:18;;;;;;;32.33;15.63;;;;;;;;;;5097191;28;20048;-60
2023/10/20 06:36:48;;;;;;;29.02;15.30;;;;;;;;;;5116163;27;20078;-60
2023/10/20 06:39:14;;;;;;;21.15;12.48;;;;;;;;;;5121936;27;20054;-60
2023/10/20 06:41:40;;;;;;;23.33;12.68;;;;;;;;;;5082833;27;20047;-60
2023/10/20 06:44:06;;;;;;;27.48;14.07;;;;;;;;;;5112451;27;20089;-61
2023/10/20 06:46:35;;;;;;;24.27;14.35;;;;;;;;;;5113581;27;20047;-60
2023/10/20 06:49:02;;;;;;;29.27;16.33;;;;;;;;;;5114457;27;20046;-61
2023/10/20 06:51:29;;;;;;;26.27;14.80;;;;;;;;;;5108459;27;20048;-61
2023/10/20 06:53:56;;;;;;;30.83;16.80;;;;;;;;;;5114480;28;20052;-60
2023/10/20 06:56:22;;;;;;;25.88;13.88;;;;;;;;;;5111894;27;20765;-60
2023/10/20 06:58:48;;;;;;;20.40;12.82;;;;;;;;;;5115313;28;20050;-60
2023/10/20 07:01:14;;;;;;;29.08;15.68;;;;;;;;;;5114137;28;20122;-60
2023/10/20 07:03:40;;;;;;;35.85;18.33;;;;;;;;;;5114993;28;20130;-60
2023/10/20 07:06:11;;;;;;;19.83;10.05;;;;;;;;;;5110401;27;20051;-60
2023/10/20 07:08:37;;;;;;;27.63;14.35;;;;;;;;;;5092161;28;20051;-60
2023/10/20 07:11:06;;;;;;;23.40;12.18;;;;;;;;;;5115038;28;20138;-61
2023/10/20 07:13:32;;;;;;;26.83;13.95;;;;;;;;;;5114395;28;20086;-60
2023/10/20 07:15:59;;;;;;;29.90;12.90;;;;;;;;;;5094765;28;20066;-60
2023/10/20 07:18:25;;;;;;;23.67;11.38;;;;;;;;;;5114560;28;20439;-60
2023/10/20 07:20:52;;;;;;;19.65;9.73;;;;;;;;;;5114958;27;20185;-60
2023/10/20 07:23:18;;;;;;;24.98;11.70;;;;;;;;;;5095969;28;20400;-60
2023/10/20 07:25:44;;;;;;;21.33;10.73;;;;;;;;;;5113050;28;20035;-60
2023/10/20 07:28:11;;;;;;;15.90;8.07;;;;;;;;;;5114421;28;20048;-60
2023/10/20 07:30:37;;;;;;;15.65;7.78;;;;;;;;;;5105978;28;20085;-60
2023/10/20 07:33:03;;;;;;;15.60;9.60;;;;;;;;;;5114215;27;20051;-61
2023/10/20 07:35:30;;;;;;;19.00;9.90;;;;;;;;;;5096620;28;20043;-60
2023/10/20 07:37:57;;;;;;;18.55;8.38;;;;;;;;;;5112267;28;20054;-60
2023/10/20 07:40:26;;;;;;;16.48;9.40;;;;;;;;;;5113467;28;20047;-60
2023/10/20 07:42:53;;;;;;;16.00;7.40;;;;;;;;;;5111228;27;20052;-60
2023/10/20 07:45:19;;;;;;;17.40;7.82;;;;;;;;;;5113332;27;20297;-61
2023/10/20 07:47:46;;;;;;;18.15;9.30;;;;;;;;;;5094540;28;20100;-61
2023/10/20 07:50:12;;;;;;;15.60;8.25;;;;;;;;;;5110176;27;20441;-60
2023/10/20 07:52:38;;;;;;;17.00;8.35;;;;;;;;;;5113405;28;20051;-61
2023/10/20 07:55:05;;;;;;;10.02;5.57;;;;;;;;;;5113268;28;20104;-62
2023/10/20 07:57:31;;;;;;;13.45;6.32;;;;;;;;;;5091064;28;20075;-61
2023/10/20 07:59:57;;;;;;;8.95;5.43;;;;;;;;;;5112621;28;20123;-61
2023/10/20 08:02:23;;;;;;;15.20;8.70;;;;;;;;;;5111954;28;20047;-61
2023/10/20 08:04:52;;;;;;;15.77;8.50;;;;;;;;;;5113211;28;20046;-62
2023/10/20 08:07:18;;;;;;;13.50;6.25;;;;;;;;;;5112693;28;20480;-62
2023/10/20 08:09:44;;;;;;;14.27;6.03;;;;;;;;;;5114173;28;20492;-62
2023/10/20 08:12:10;;;;;;;8.55;5.45;;;;;;;;;;5112623;27;20492;-61
2023/10/20 08:14:37;;;;;;;11.40;5.53;;;;;;;;;;5111717;28;20064;-60
2023/10/20 08:17:08;;;;;;;10.98;5.75;;;;;;;;;;5111782;28;20059;-60
2023/10/20 08:19:35;;;;;;;9.32;5.70;;;;;;;;;;5111051;27;20051;-61
2023/10/20 08:22:01;;;;;;;8.45;5.32;;;;;;;;;;5066911;28;20056;-60
2023/10/20 08:24:27;;;;;;;7.28;4.38;;;;;;;;;;5112112;27;20054;-60
2023/10/20 08:26:53;;;;;;;5.88;3.95;;;;;;;;;;5110859;28;20039;-60
2023/10/20 08:29:19;;;;;;;12.68;5.50;;;;;;;;;;5113664;27;20043;-60
2023/10/20 08:31:45;;;;;;;9.82;4.57;;;;;;;;;;5095147;28;20054;-60
2023/10/20 08:34:11;;;;;;;7.95;3.70;;;;;;;;;;5112297;27;20184;-60
2023/10/20 08:36:37;;;;;;;5.18;3.10;;;;;;;;;;5105582;27;20039;-60
2023/10/20 08:39:13;;;;;;;7.45;3.38;;;;;;;;;;5108895;28;20062;-60
2023/10/20 08:41:41;;;;;;;9.85;4.53;;;;;;;;;;5111383;28;20054;-60
2023/10/20 08:44:08;;;;;;;4.97;2.85;;;;;;;;;;5092674;28;20065;-60
2023/10/20 08:46:34;;;;;;;6.75;3.05;;;;;;;;;;5109613;27;20050;-60
2023/10/20 08:49:05;;;;;;;5.65;2.67;;;;;;;;;;5109801;28;20126;-60
2023/10/20 08:51:31;;;;;;;4.78;2.20;;;;;;;;;;5111881;28;20126;-60
2023/10/20 08:53:57;;;;;;;4.70;2.97;;;;;;;;;;5109385;28;20051;-60
2023/10/20 08:56:23;;;;;;;4.82;2.63;;;;;;;;;;5109755;28;20055;-60
2023/10/20 08:58:49;;;;;;;5.80;2.20;;;;;;;;;;5112456;27;20039;-60
2023/10/20 09:01:16;;;;;;;4.82;2.58;;;;;;;;;;5093197;28;20398;-60
2023/10/20 09:03:43;;;;;;;9.02;4.63;;;;;;;;;;5110943;28;20514;-60
2023/10/20 09:06:12;;;;;;;6.00;3.42;;;;;;;;;;5092323;28;20488;-60
2023/10/20 09:08:38;;;;;;;5.20;2.78;;;;;;;;;;5110187;27;20496;-60
2023/10/20 09:11:08;;;;;;;6.93;3.33;;;;;;;;;;5093382;28;20150;-60
2023/10/20 09:13:37;;;;;;;5.30;2.22;;;;;;;;;;5108025;28;20060;-61
2023/10/20 09:16:08;;;;;;;4.07;1.83;;;;;;;;;;5107708;27;20108;-60
2023/10/20 09:18:54;;;;;;;5.75;2.80;;;;;;;;;;5109226;28;20169;-60
2023/10/20 09:21:21;;;;;;;4.63;1.80;;;;;;;;;;5109556;28;20050;-59
2023/10/20 09:23:57;;;;;;;6.30;3.83;;;;;;;;;;5111739;27;20051;-60
2023/10/20 09:26:23;;;;;;;3.85;2.00;;;;;;;;;;5091835;27;20176;-60
2023/10/20 09:28:50;;;;;;;3.67;1.90;;;;;;;;;;5108000;27;20051;-60
2023/10/20 09:31:17;;;;;;;3.22;2.15;;;;;;;;;;5111351;27;20047;-61
2023/10/20 09:33:43;;;;;;;2.47;1.60;;;;;;;;;;5110746;27;20075;-60
2023/10/20 09:36:11;;;;;;;2.75;1.35;;;;;;;;;;5109242;27;20039;-60
2023/10/20 09:38:37;;;;;;;2.58;1.33;;;;;;;;;;5105317;27;20122;-61
2023/10/20 09:41:11;;;;;;;2.70;1.30;;;;;;;;;;5112366;27;20047;-61
2023/10/20 09:43:37;;;;;;;3.05;1.40;;;;;;;;;;5111449;28;20548;-60
2023/10/20 09:46:17;;;;;;;6.10;2.97;;;;;;;;;;5112089;28;20052;-61
2023/10/20 09:48:44;;;;;;;3.00;1.50;;;;;;;;;;5111615;28;20043;-60
2023/10/20 09:51:10;;;;;;;3.80;1.58;;;;;;;;;;5112074;28;20578;-61
2023/10/20 09:53:37;;;;;;;3.58;2.05;;;;;;;;;;5110648;28;20039;-61
2023/10/20 09:56:04;;;;;;;2.97;1.48;;;;;;;;;;5110603;28;20044;-61
2023/10/20 09:58:34;;;;;;;1.70;1.20;;;;;;;;;;5112393;27;20043;-60
2023/10/20 10:01:00;;;;;;;1.95;1.15;;;;;;;;;;5091579;28;20169;-60
2023/10/20 10:03:40;;;;;;;3.35;1.27;;;;;;;;;;5110132;27;20035;-61
2023/10/20 10:06:10;;;;;;;2.35;1.40;;;;;;;;;;5088968;28;20043;-61
2023/10/20 10:08:46;;;;;;;3.75;1.20;;;;;;;;;;5119854;27;20407;-60
2023/10/20 10:11:28;;;;;;;1.80;0.90;;;;;;;;;;5099358;28;20062;-60
2023/10/20 10:13:54;;;;;;;3.33;1.25;;;;;;;;;;5111139;27;20081;-60
2023/10/20 10:16:23;;;;;;;1.90;1.08;;;;;;;;;;5095456;28;20056;-60
2023/10/20 10:18:50;;;;;;;2.45;1.20;;;;;;;;;;5107586;28;20440;-60
2023/10/20 10:21:30;;;;;;;3.13;1.30;;;;;;;;;;5093543;28;20051;-60
2023/10/20 10:24:22;;;;;;;1.90;1.02;;;;;;;;;;5104609;28;20061;-60
2023/10/20 10:26:54;;;;;;;1.25;0.77;;;;;;;;;;5108909;28;20113;-60
2023/10/20 10:29:41;;;;;;;1.67;0.98;;;;;;;;;;5114015;28;20123;-60
2023/10/20 10:32:11;;;;;;;1.08;0.60;;;;;;;;;;5088456;28;20055;-60
2023/10/20 10:34:41;;;;;;;1.73;1.05;;;;;;;;;;5112025;28;20044;-60
2023/10/20 10:37:08;;;;;;;1.40;0.73;;;;;;;;;;5111648;28;20357;-61
2023/10/20 10:39:34;;;;;;;2.85;1.15;;;;;;;;;;5113925;28;20168;-60
2023/10/20 10:42:03;;;;;;;1.52;0.85;;;;;;;;;;5111144;28;20476;-60
2023/10/20 10:44:35;;;;;;;4.30;1.67;;;;;;;;;;5111286;28;20119;-60
2023/10/20 10:47:03;;;;;;;8.95;4.22;;;;;;;;;;5105648;28;20446;-60
2023/10/20 10:49:31;;;;;;;2.55;1.05;;;;;;;;;;5093053;28;20047;-61
2023/10/20 10:51:58;;;;;;;4.30;2.40;;;;;;;;;;5109635;28;20044;-60
2023/10/20 10:54:26;;;;;;;2.53;1.42;;;;;;;;;;5111326;28;20051;-61
2023/10/20 10:56:52;;;;;;;4.43;2.08;;;;;;;;;;5091326;28;20500;-60
2023/10/20 10:59:19;;;;;;;1.73;0.80;;;;;;;;;;5110377;28;20052;-60
2023/10/20 11:01:46;;;;;;;2.17;1.38;;;;;;;;;;5111052;28;20552;-61
2023/10/20 11:04:12;;;;;;;1.30;0.80;;;;;;;;;;5102885;28;20075;-60
2023/10/20 11:06:38;;;;;;;2.60;0.77;;;;;;;;;;5088133;28;20052;-61
2023/10/20 11:09:10;;;;;;;1.27;0.70;;;;;;;;;;5085117;28;20044;-61
2023/10/20 11:11:42;;;;;;;0.75;0.57;;;;;;;;;;5108037;28;20055;-60
2023/10/20 11:14:08;;;;;;;1.60;0.90;;;;;;;;;;5113971;28;20062;-61
2023/10/20 11:16:36;;;;;;;1.10;0.60;;;;;;;;;;5096916;28;20054;-61
2023/10/20 11:19:02;;;;;;;1.92;1.10;;;;;;;;;;5114550;28;20047;-62
2023/10/20 11:21:29;;;;;;;1.67;1.15;;;;;;;;;;5114532;27;20052;-61
2023/10/20 11:23:58;;;;;;;0.80;0.60;;;;;;;;;;5094660;28;20047;-60
2023/10/20 11:26:24;;;;;;;1.38;0.80;;;;;;;;;;5112767;28;20050;-60
2023/10/20 11:28:51;;;;;;;1.25;0.80;;;;;;;;;;5096334;28;20047;-60
2023/10/20 11:31:19;;;;;;;0.80;0.60;;;;;;;;;;5114610;28;20042;-60
2023/10/20 11:33:45;;;;;;;1.08;0.73;;;;;;;;;;5115039;28;20112;-61
2023/10/20 11:36:11;;;;;;;1.50;0.70;;;;;;;;;;5114482;28;20068;-61
2023/10/20 11:38:37;;;;;;;0.75;0.45;;;;;;;;;;5114965;28;20193;-60
2023/10/20 11:41:04;;;;;;;1.45;0.65;;;;;;;;;;5096379;28;20059;-61
2023/10/20 11:43:31;;;;;;;1.05;0.60;;;;;;;;;;5113865;28;20122;-59
2023/10/20 11:45:57;;;;;;;2.03;1.25;;;;;;;;;;5096711;28;20507;-60
2023/10/20 11:48:23;;;;;;;10.98;6.50;;;;;;;;;;5113618;28;20047;-60
2023/10/20 11:50:49;;;;;;;1.13;0.70;;;;;;;;;;5114767;28;20047;-60
2023/10/20 11:53:16;;;;;;;0.55;0.38;;;;;;;;;;5114154;28;20042;-60
2023/10/20 11:55:42;;;;;;;0.93;0.47;;;;;;;;;;5114098;28;20504;-60
2023/10/20 11:58:09;;;;;;;0.77;0.40;;;;;;;;;;5113903;28;20110;-60
2023/10/20 12:00:41;;;;;;;0.65;0.40;;;;;;;;;;5113307;28;20100;-60
2023/10/20 12:03:07;;;;;;;1.08;0.28;;;;;;;;;;5114372;28;20083;-60
2023/10/20 12:05:36;;;;;;;0.88;0.50;;;;;;;;;;5106631;28;20451;-60
2023/10/20 12:08:03;;;;;;;0.90;0.52;;;;;;;;;;5113960;28;20372;-61
2023/10/20 12:10:30;;;;;;;4.72;1.58;;;;;;;;;;5112974;28;20047;-61
2023/10/20 12:12:56;;;;;;;9.27;5.05;;;;;;;;;;5094523;28;20048;-61
2023/10/20 12:15:23;;;;;;;17.55;11.05;;;;;;;;;;5112080;28;20638;-60
2023/10/20 12:17:49;;;;;;;0.85;0.40;;;;;;;;;;5113499;28;20112;-60
2023/10/20 12:20:15;;;;;;;0.68;0.40;;;;;;;;;;5113668;28;20127;-60
2023/10/20 12:22:41;;;;;;;0.77;0.50;;;;;;;;;;5114037;28;20039;-60
2023/10/20 12:25:08;;;;;;;0.57;0.43;;;;;;;;;;5075954;28;20101;-60
2023/10/20 12:27:34;;;;;;;1.20;0.60;;;;;;;;;;5113804;28;20130;-60
2023/10/20 12:30:00;;;;;;;1.70;0.40;;;;;;;;;;5112973;28;20131;-60
2023/10/20 12:32:27;;;;;;;1.02;0.47;;;;;;;;;;5113088;28;20123;-60
2023/10/20 12:34:53;;;;;;;0.73;0.50;;;;;;;;;;5110433;27;20446;-62
2023/10/20 12:37:20;;;;;;;1.25;0.40;;;;;;;;;;5112428;28;20444;-60
2023/10/20 12:39:46;;;;;;;0.70;0.40;;;;;;;;;;5108201;27;20519;-61
2023/10/20 12:42:12;;;;;;;2.40;0.70;;;;;;;;;;5111267;27;20119;-61
2023/10/20 12:44:38;;;;;;;1.10;0.50;;;;;;;;;;5111859;28;20039;-61
2023/10/20 12:47:06;;;;;;;1.17;0.40;;;;;;;;;;5109178;28;20046;-61
2023/10/20 12:49:32;;;;;;;0.60;0.40;;;;;;;;;;5108866;27;20039;-60
2023/10/20 12:51:58;;;;;;;1.20;0.65;;;;;;;;;;5094250;28;20432;-60
2023/10/20 12:54:24;;;;;;;0.95;0.60;;;;;;;;;;5110867;28;20082;-60
2023/10/20 12:56:50;;;;;;;0.82;0.35;;;;;;;;;;5113322;27;20046;-60
2023/10/20 12:59:16;;;;;;;0.85;0.35;;;;;;;;;;5109709;27;20437;-60
2023/10/20 13:01:42;;;;;;;0.90;0.50;;;;;;;;;;5114899;27;20047;-60
2023/10/20 13:04:08;;;;;;;0.82;0.47;;;;;;;;;;5111670;27;20114;-61
2023/10/20 13:06:34;;;;;;;0.85;0.40;;;;;;;;;;5111767;27;20593;-61
2023/10/20 13:09:02;;;;;;;0.73;0.50;;;;;;;;;;5110930;27;20043;-61
2023/10/20 13:11:29;;;;;;;1.33;0.50;;;;;;;;;;5091004;28;20028;-61
2023/10/20 13:13:55;;;;;;;0.80;0.43;;;;;;;;;;5088457;28;20063;-61
2023/10/20 13:16:21;;;;;;;0.95;0.50;;;;;;;;;;5084911;28;20368;-61
2023/10/20 13:18:47;;;;;;;0.90;0.50;;;;;;;;;;5109866;28;20049;-62
2023/10/20 13:21:13;;;;;;;0.40;0.40;;;;;;;;;;5110069;28;20075;-61
2023/10/20 13:23:39;;;;;;;0.75;0.40;;;;;;;;;;5113009;28;20043;-62
2023/10/20 13:26:05;;;;;;;0.45;0.40;;;;;;;;;;5093524;28;20548;-61
2023/10/20 13:28:35;;;;;;;1.00;0.65;;;;;;;;;;5110193;28;20047;-60
2023/10/20 13:31:03;;;;;;;0.60;0.50;;;;;;;;;;5111077;28;20088;-61
2023/10/20 13:33:30;;;;;;;0.57;0.50;;;;;;;;;;5110837;28;20047;-61
2023/10/20 13:36:01;;;;;;;1.17;0.52;;;;;;;;;;5108071;28;20182;-61
2023/10/20 13:38:29;;;;;;;3.08;0.50;;;;;;;;;;5077384;28;20050;-61
2023/10/20 13:40:55;;;;;;;0.28;0.28;;;;;;;;;;5075469;28;20051;-61
2023/10/20 13:43:21;;;;;;;1.10;0.60;;;;;;;;;;5093744;28;20155;-61
2023/10/20 13:45:48;;;;;;;0.38;0.32;;;;;;;;;;5093137;28;20044;-61
2023/10/20 13:48:14;;;;;;;0.43;0.43;;;;;;;;;;5110973;28;20463;-61
2023/10/20 13:50:40;;;;;;;0.35;0.28;;;;;;;;;;5112217;28;20495;-61
2023/10/20 13:53:09;;;;;;;0.80;0.52;;;;;;;;;;5111838;28;20553;-60
2023/10/20 13:55:36;;;;;;;0.30;0.30;;;;;;;;;;5110837;28;20058;-61
2023/10/20 13:58:02;;;;;;;1.95;0.40;;;;;;;;;;5092557;28;20044;-60
2023/10/20 14:00:33;;;;;;;0.40;0.30;;;;;;;;;;5111114;28;20403;-60
2023/10/20 14:02:59;;;;;;;;;;;7.20;99.90;;;;;;5101107;28;20047;-60
2023/10/20 14:05:25;;;;;;;0.25;0.25;;;;;;;;;;5107681;28;19930;-59
2023/10/20 14:07:51;;;;;;;0.57;0.40;;;;;;;;;;5110611;28;20043;-60
2023/10/20 14:10:18;;;;;;;0.20;0.20;;;;;;;;;;5109942;28;20043;-59
2023/10/20 14:12:44;;;;;;;0.30;0.22;;;;;;;;;;5109584;28;20060;-59
2023/10/20 14:15:11;;;;;;;1.08;0.43;;;;;;;;;;5103073;28;20158;-60
2023/10/20 14:17:37;;;;;;;1.30;1.20;;;;;;;;;;5071802;28;20445;-60
2023/10/20 14:20:03;;;;;;;0.60;0.22;;;;;;;;;;5110447;28;20047;-62
2023/10/20 14:22:29;;;;;;;0.10;0.10;;;;;;;;;;5106793;28;20416;-59
2023/10/20 14:24:55;;;;;;;1.38;0.20;;;;;;;;;;5090523;28;20090;-60
2023/10/20 14:27:22;;;;;;;1.13;0.45;;;;;;;;;;5102087;28;20765;-60
2023/10/20 14:29:48;;;;;;;1.50;0.30;;;;;;;;;;5104080;28;20043;-60
2023/10/20 14:32:14;;;;;;;2.03;0.40;;;;;;;;;;5105593;28;20051;-59
2023/10/20 14:34:40;;;;;;;0.52;0.30;;;;;;;;;;5111731;28;20043;-59
2023/10/20 14:37:07;;;;;;;0.30;0.20;;;;;;;;;;5112892;28;20031;-59
2023/10/20 14:39:35;;;;;;;0.22;0.22;;;;;;;;;;5109722;28;20063;-59
2023/10/20 14:42:02;;;;;;;0.75;0.30;;;;;;;;;;5105679;28;20055;-59
2023/10/20 14:44:30;;;;;;;0.22;0.22;;;;;;;;;;5107629;28;20126;-59
2023/10/20 14:46:56;;;;;;;0.50;0.35;;;;;;;;;;5090791;28;20050;-59
2023/10/20 14:49:22;;;;;;;1.10;0.20;;;;;;;;;;5110448;28;20105;-60
2023/10/20 14:51:48;;;;;;;0.43;0.40;;;;;;;;;;5110402;27;20048;-60
2023/10/20 14:54:15;;;;;;;0.32;0.30;;;;;;;;;;5107383;27;20044;-60
2023/10/20 14:56:41;;;;;;;0.30;0.20;;;;;;;;;;5115247;27;20044;-60
2023/10/20 14:59:07;;;;;;;0.60;0.30;;;;;;;;;;5080485;28;20044;-60
2023/10/20 15:01:33;;;;;;;0.28;0.28;;;;;;;;;;5117481;27;20108;-59
2023/10/20 15:03:59;;;;;;;0.43;0.25;;;;;;;;;;5098042;28;20479;-60